Time;durP1;ratioP1;P1;durP2;ratioP2;P2;SDS_P1;SDS_P2;PMS_P1;PMS_P2;Temp;Humidity;BMP_temperature;BMP_pressure;BME280_temperature;BME280_humidity;BME280_pressure;Samples;Min_cycle;Max_cycle;Signal;HPM_P1;HPM_P2
2021/09/22 00:01:58;;;;;;;6.97;5.20;;;14.50;99.90;;;;;;5010238;28;20992;-76
2021/09/22 00:04:27;;;;;;;5.93;4.50;;;14.50;99.90;;;;;;5011774;28;20480;-75
2021/09/22 00:06:55;;;;;;;5.60;5.10;;;14.50;99.90;;;;;;5010536;28;20507;-74
2021/09/22 00:09:23;;;;;;;5.43;4.77;;;14.50;99.90;;;;;;5009828;28;20555;-75
2021/09/22 00:11:51;;;;;;;6.60;5.90;;;14.40;99.90;;;;;;5004215;28;20483;-75
2021/09/22 00:14:19;;;;;;;7.03;4.67;;;14.40;99.90;;;;;;5009716;28;20530;-74
2021/09/22 00:16:48;;;;;;;5.63;5.13;;;14.40;99.90;;;;;;5010856;28;20885;-76
2021/09/22 00:19:16;;;;;;;5.57;4.63;;;14.40;99.90;;;;;;5010937;28;20453;-75
2021/09/22 00:21:45;;;;;;;6.70;5.50;;;14.40;99.90;;;;;;5012032;28;20895;-75
2021/09/22 00:24:13;;;;;;;6.17;5.50;;;14.40;99.90;;;;;;5011171;28;20469;-75
2021/09/22 00:26:42;;;;;;;6.40;5.30;;;14.40;99.90;;;;;;5010143;28;20485;-74
2021/09/22 00:29:10;;;;;;;5.53;4.93;;;14.40;99.90;;;;;;5009956;28;20483;-76
2021/09/22 00:31:38;;;;;;;5.27;4.77;;;14.40;99.90;;;;;;5005855;28;20497;-76
2021/09/22 00:34:07;;;;;;;5.57;5.07;;;14.40;99.90;;;;;;5010582;28;20468;-75
2021/09/22 00:36:35;;;;;;;6.87;6.17;;;14.30;99.90;;;;;;5012205;28;20501;-75
2021/09/22 00:39:06;;;;;;;7.17;6.30;;;14.30;99.90;;;;;;5011219;28;20463;-75
2021/09/22 00:41:34;;;;;;;5.50;5.00;;;14.30;99.90;;;;;;5009586;28;21012;-75
2021/09/22 00:44:03;;;;;;;6.77;6.17;;;14.40;99.90;;;;;;5010684;28;20492;-74
2021/09/22 00:46:31;;;;;;;5.97;5.33;;;14.30;99.90;;;;;;5010014;28;20450;-75
2021/09/22 00:48:59;;;;;;;9.00;6.37;;;14.20;99.90;;;;;;5006372;28;20476;-75
2021/09/22 00:51:28;;;;;;;5.90;5.30;;;14.30;99.90;;;;;;5010706;28;20493;-73
2021/09/22 00:53:56;;;;;;;6.43;5.40;;;14.20;99.90;;;;;;5010513;28;21141;-73
2021/09/22 00:56:25;;;;;;;13.33;5.30;;;14.20;99.90;;;;;;5010925;28;20519;-73
2021/09/22 00:58:54;;;;;;;5.93;5.03;;;14.20;99.90;;;;;;5002927;28;20956;-74
2021/09/22 01:01:22;;;;;;;5.60;4.87;;;14.10;99.90;;;;;;5004742;28;20556;-75
2021/09/22 01:03:50;;;;;;;5.43;4.93;;;14.10;99.90;;;;;;5010692;28;20511;-75
2021/09/22 01:06:19;;;;;;;5.53;5.03;;;14.10;99.90;;;;;;5011553;28;20458;-77
2021/09/22 01:08:47;;;;;;;6.00;5.40;;;14.10;99.90;;;;;;5008314;28;21910;-79
2021/09/22 01:11:16;;;;;;;5.70;5.00;;;14.10;99.90;;;;;;5006707;28;20496;-80
2021/09/22 01:13:46;;;;;;;8.37;5.40;;;14.10;99.90;;;;;;5010585;28;20448;-79
2021/09/22 01:16:14;;;;;;;6.63;5.63;;;14.00;99.90;;;;;;5005693;28;20506;-79
2021/09/22 01:18:42;;;;;;;5.80;5.17;;;14.10;99.90;;;;;;5008187;28;20455;-78
2021/09/22 01:21:10;;;;;;;8.07;6.57;;;14.00;99.90;;;;;;5009065;28;20882;-80
2021/09/22 01:23:40;;;;;;;6.37;5.77;;;14.00;99.90;;;;;;5010082;28;20463;-79
2021/09/22 01:26:08;;;;;;;5.93;5.23;;;14.00;99.90;;;;;;5006539;28;20454;-78
2021/09/22 01:28:37;;;;;;;6.63;5.33;;;14.00;99.90;;;;;;5008964;28;21018;-79
2021/09/22 01:31:06;;;;;;;6.27;5.13;;;14.00;99.90;;;;;;5005716;28;20481;-77
2021/09/22 01:33:34;;;;;;;7.83;5.80;;;14.00;99.90;;;;;;5008671;28;20457;-76
2021/09/22 01:36:03;;;;;;;5.33;4.83;;;13.90;99.90;;;;;;5009208;28;20457;-78
2021/09/22 01:38:31;;;;;;;5.90;5.40;;;13.90;99.90;;;;;;5018295;28;20499;-79
2021/09/22 01:41:03;;;;;;;5.67;5.07;;;13.90;99.90;;;;;;5009416;28;20520;-77
2021/09/22 01:43:32;;;;;;;5.70;5.20;;;13.90;99.90;;;;;;5010427;28;20954;-78
2021/09/22 01:46:01;;;;;;;4.80;4.27;;;13.90;99.90;;;;;;5009746;28;20464;-78
2021/09/22 01:48:29;;;;;;;5.20;4.70;;;13.80;99.90;;;;;;5014425;28;20455;-77
2021/09/22 01:50:59;;;;;;;7.00;4.60;;;13.80;99.90;;;;;;5011699;28;20522;-78
2021/09/22 01:53:28;;;;;;;6.03;5.10;;;13.80;99.90;;;;;;5010964;28;20460;-78
2021/09/22 01:55:58;;;;;;;6.40;5.10;;;13.70;99.90;;;;;;5009483;28;20812;-77
2021/09/22 01:58:29;;;;;;;5.53;5.03;;;13.70;99.90;;;;;;5006915;28;20465;-80
2021/09/22 02:00:59;;;;;;;8.43;5.40;;;13.70;99.90;;;;;;5009398;28;20450;-79
2021/09/22 02:03:28;;;;;;;4.57;4.17;;;13.80;99.90;;;;;;5003053;28;20455;-78
2021/09/22 02:05:56;;;;;;;5.20;4.70;;;13.80;99.90;;;;;;5005150;28;21018;-78
2021/09/22 02:08:24;;;;;;;5.50;4.77;;;13.70;99.90;;;;;;5009572;28;20454;-79
2021/09/22 02:10:52;;;;;;;5.33;4.60;;;13.70;99.90;;;;;;5003259;28;20459;-77
2021/09/22 02:13:20;;;;;;;6.80;5.53;;;13.60;99.90;;;;;;5007353;28;20543;-78
2021/09/22 02:15:50;;;;;;;6.07;5.53;;;13.50;99.90;;;;;;5009480;28;20533;-78
2021/09/22 02:18:19;;;;;;;5.70;5.13;;;13.60;99.90;;;;;;5009611;28;20477;-78
2021/09/22 02:20:47;;;;;;;5.70;5.20;;;13.60;99.90;;;;;;5007367;28;20453;-79
2021/09/22 02:23:15;;;;;;;6.90;5.70;;;13.60;99.90;;;;;;5008334;28;20468;-79
2021/09/22 02:25:43;;;;;;;5.77;5.17;;;13.60;99.90;;;;;;5008791;28;20452;-79
2021/09/22 02:28:12;;;;;;;5.73;5.20;;;13.50;99.90;;;;;;5001664;28;20455;-79
2021/09/22 02:30:40;;;;;;;5.73;5.13;;;13.30;99.90;;;;;;5007770;28;20985;-79
2021/09/22 02:33:09;;;;;;;6.37;5.30;;;13.20;99.90;;;;;;5002099;28;20983;-78
2021/09/22 02:35:37;;;;;;;6.33;5.70;;;13.30;99.90;;;;;;5001071;28;20500;-79
2021/09/22 02:38:06;;;;;;;6.90;5.70;;;13.10;99.90;;;;;;4998631;28;20992;-79
2021/09/22 02:40:34;;;;;;;5.33;4.47;;;12.90;99.90;;;;;;5007578;28;20460;-79
2021/09/22 02:43:02;;;;;;;8.67;5.83;;;12.90;99.90;;;;;;5009200;28;21006;-78
2021/09/22 02:45:30;;;;;;;5.83;4.73;;;12.90;99.90;;;;;;5023327;28;20979;-79
2021/09/22 02:47:58;;;;;;;5.33;4.77;;;12.90;99.90;;;;;;5009082;28;21304;-77
2021/09/22 02:50:28;;;;;;;7.23;5.40;;;13.00;99.90;;;;;;4999974;28;20499;-78
2021/09/22 02:52:56;;;;;;;8.57;5.93;;;13.10;99.90;;;;;;5023623;28;21191;-77
2021/09/22 02:55:24;;;;;;;6.27;5.70;;;13.30;99.90;;;;;;5009034;28;20469;-78
2021/09/22 02:57:52;;;;;;;6.47;5.30;;;13.40;99.90;;;;;;5001087;28;20459;-79
2021/09/22 03:00:20;;;;;;;6.00;5.40;;;13.60;99.90;;;;;;5007559;28;20453;-78
2021/09/22 03:02:48;;;;;;;5.87;5.33;;;13.50;99.90;;;;;;5006110;28;20463;-78
2021/09/22 03:05:16;;;;;;;5.97;4.77;;;13.50;99.90;;;;;;5002872;28;20469;-79
2021/09/22 03:07:46;;;;;;;6.10;5.50;;;13.40;99.90;;;;;;5008289;28;20846;-80
2021/09/22 03:10:14;;;;;;;5.63;4.90;;;13.40;99.90;;;;;;4998722;28;20460;-80
2021/09/22 03:12:43;;;;;;;5.73;5.23;;;13.40;99.90;;;;;;5009367;28;20535;-81
2021/09/22 03:15:11;;;;;;;6.13;5.53;;;13.40;99.90;;;;;;5005938;28;20463;-81
2021/09/22 03:17:39;;;;;;;10.27;5.87;;;13.40;99.90;;;;;;5001369;28;20464;-80
2021/09/22 03:20:09;;;;;;;6.10;5.50;;;13.30;99.90;;;;;;5007982;28;20514;-79
2021/09/22 03:22:37;;;;;;;5.43;4.70;;;13.30;99.90;;;;;;5009730;28;20508;-80
2021/09/22 03:25:08;;;;;;;5.63;4.90;;;13.30;99.90;;;;;;5008319;28;20461;-79
2021/09/22 03:27:37;;;;;;;5.47;4.87;;;13.30;99.90;;;;;;5008729;28;20445;-81
2021/09/22 03:30:08;;;;;;;5.23;4.73;;;13.20;99.90;;;;;;5009184;28;20460;-78
2021/09/22 03:32:36;;;;;;;5.73;4.90;;;13.20;99.90;;;;;;5008915;28;20986;-79
2021/09/22 03:35:04;;;;;;;6.23;5.50;;;13.20;99.90;;;;;;5007468;28;20507;-78
2021/09/22 03:37:33;;;;;;;5.50;5.00;;;13.20;99.90;;;;;;5007338;28;20479;-79
2021/09/22 03:40:01;;;;;;;6.73;5.60;;;13.20;99.90;;;;;;5006065;28;20461;-79
2021/09/22 03:42:31;;;;;;;6.60;5.00;;;13.10;99.90;;;;;;5006962;28;20479;-79
2021/09/22 03:44:59;;;;;;;7.37;5.13;;;13.10;99.90;;;;;;5007264;28;20456;-79
2021/09/22 03:47:27;;;;;;;6.40;5.20;;;13.20;99.90;;;;;;5007687;28;20473;-78
2021/09/22 03:49:55;;;;;;;5.80;4.93;;;13.20;99.90;;;;;;5007951;28;20454;-78
2021/09/22 03:52:23;;;;;;;6.20;5.60;;;13.30;99.90;;;;;;5008272;28;20899;-77
2021/09/22 03:54:51;;;;;;;8.87;6.00;;;13.10;99.90;;;;;;5005612;28;20469;-79
2021/09/22 03:57:19;;;;;;;6.80;5.67;;;13.10;99.90;;;;;;5009134;28;20525;-79
2021/09/22 03:59:49;;;;;;;5.47;4.90;;;13.20;99.90;;;;;;5006620;28;20458;-81
2021/09/22 04:02:18;;;;;;;6.70;5.47;;;13.20;99.90;;;;;;5004725;28;20479;-73
2021/09/22 04:04:46;;;;;;;6.90;6.07;;;13.20;99.90;;;;;;5008812;28;20458;-73
2021/09/22 04:07:14;;;;;;;6.77;6.07;;;13.20;99.90;;;;;;5006636;28;20457;-74
2021/09/22 04:09:43;;;;;;;7.77;5.33;;;13.20;99.90;;;;;;4999885;28;20466;-74
2021/09/22 04:12:11;;;;;;;6.13;5.50;;;13.20;99.90;;;;;;5005336;28;20503;-77
2021/09/22 04:14:39;;;;;;;6.23;5.27;;;13.10;99.90;;;;;;5007213;28;20525;-78
2021/09/22 04:17:08;;;;;;;7.07;6.10;;;12.90;99.90;;;;;;5002618;28;21001;-79
2021/09/22 04:19:36;;;;;;;7.17;5.50;;;13.00;99.90;;;;;;5005445;28;20451;-80
2021/09/22 04:22:05;;;;;;;7.90;6.73;;;13.00;99.90;;;;;;5008146;28;20476;-75
2021/09/22 04:24:33;;;;;;;6.77;6.03;;;13.00;99.90;;;;;;5008122;28;20861;-80
2021/09/22 04:27:01;;;;;;;6.53;5.70;;;13.00;99.90;;;;;;5002278;28;20446;-79
2021/09/22 04:29:29;;;;;;;7.53;6.80;;;13.00;99.90;;;;;;5006813;28;20465;-79
2021/09/22 04:31:58;;;;;;;6.33;5.73;;;13.00;99.90;;;;;;5007271;28;20562;-79
2021/09/22 04:34:27;;;;;;;6.63;5.80;;;12.90;99.90;;;;;;5008187;28;20563;-78
2021/09/22 04:36:56;;;;;;;7.30;6.43;;;12.70;99.90;;;;;;5009883;28;20460;-77
2021/09/22 04:39:24;;;;;;;6.20;5.60;;;12.40;99.90;;;;;;5013289;28;20508;-77
2021/09/22 04:41:52;;;;;;;6.67;5.60;;;12.20;99.90;;;;;;5004543;28;20513;-80
2021/09/22 04:44:20;;;;;;;5.50;5.00;;;12.40;99.90;;;;;;5002177;28;20453;-80
2021/09/22 04:46:48;;;;;;;7.20;6.50;;;12.60;99.90;;;;;;5003677;28;20746;-80
2021/09/22 04:49:16;;;;;;;9.13;7.10;;;12.70;99.90;;;;;;5002161;28;20451;-78
2021/09/22 04:51:46;;;;;;;7.90;7.10;;;12.80;99.90;;;;;;5010144;28;20226;-79
2021/09/22 04:54:14;;;;;;;7.93;5.67;;;12.90;99.90;;;;;;5009806;28;20526;-80
2021/09/22 04:56:42;;;;;;;6.07;5.40;;;12.90;99.90;;;;;;5010709;28;20870;-81
2021/09/22 04:59:10;;;;;;;9.43;6.17;;;12.90;99.90;;;;;;5012730;28;20469;-81
2021/09/22 05:01:39;;;;;;;7.00;6.13;;;12.90;99.90;;;;;;5001363;28;20490;-80
2021/09/22 05:04:08;;;;;;;7.37;5.33;;;12.90;99.90;;;;;;5009138;28;20521;-81
2021/09/22 05:06:37;;;;;;;6.50;5.80;;;12.90;99.90;;;;;;5008375;28;20519;-78
2021/09/22 05:09:07;;;;;;;6.70;5.57;;;12.90;99.90;;;;;;5010755;28;20464;-79
2021/09/22 05:11:36;;;;;;;7.70;6.90;;;12.90;99.90;;;;;;5011363;28;21217;-79
2021/09/22 05:14:04;;;;;;;6.70;6.00;;;12.90;99.90;;;;;;5007788;28;20510;-78
2021/09/22 05:16:32;;;;;;;7.77;6.27;;;12.80;99.90;;;;;;5008671;28;20974;-79
2021/09/22 05:19:00;;;;;;;7.47;6.30;;;12.80;99.90;;;;;;5009693;28;20465;-79
2021/09/22 05:21:28;;;;;;;7.37;6.03;;;12.80;99.90;;;;;;5007839;28;20533;-80
2021/09/22 05:23:57;;;;;;;6.70;5.90;;;12.80;99.90;;;;;;5010657;28;20463;-78
2021/09/22 05:26:26;;;;;;;7.60;6.80;;;12.70;99.90;;;;;;5008966;28;20513;-80
2021/09/22 05:28:54;;;;;;;7.90;6.57;;;12.80;99.90;;;;;;5006714;28;20525;-77
2021/09/22 05:31:22;;;;;;;6.73;6.13;;;12.70;99.90;;;;;;5011277;28;20309;-78
2021/09/22 05:33:51;;;;;;;9.40;6.60;;;12.80;99.90;;;;;;5006645;28;20582;-79
2021/09/22 05:36:19;;;;;;;6.50;5.80;;;12.80;99.90;;;;;;5005937;28;21080;-76
2021/09/22 05:38:47;;;;;;;9.40;6.63;;;12.80;99.90;;;;;;5009931;28;21218;-78
2021/09/22 05:41:15;;;;;;;6.63;5.83;;;12.80;99.90;;;;;;4997720;28;20480;-79
2021/09/22 05:43:44;;;;;;;7.77;6.83;;;12.80;99.90;;;;;;5003364;28;20449;-79
2021/09/22 05:46:12;;;;;;;8.20;6.60;;;12.80;99.90;;;;;;5011763;28;20450;-78
2021/09/22 05:48:41;;;;;;;6.80;6.00;;;12.80;99.90;;;;;;5011020;28;20523;-78
2021/09/22 05:51:09;;;;;;;7.13;6.17;;;12.80;99.90;;;;;;5021095;28;21045;-76
2021/09/22 05:53:38;;;;;;;10.10;6.23;;;12.80;99.90;;;;;;5008287;28;20478;-78
2021/09/22 05:56:06;;;;;;;7.23;6.30;;;12.80;99.90;;;;;;5010761;28;20438;-79
2021/09/22 05:58:35;;;;;;;7.60;5.93;;;12.80;99.90;;;;;;5010512;28;20458;-79
2021/09/22 06:01:04;;;;;;;6.10;5.50;;;12.80;99.90;;;;;;5005990;28;20458;-79
2021/09/22 06:03:34;;;;;;;6.40;5.80;;;12.90;99.90;;;;;;5010884;28;20441;-77
2021/09/22 06:06:03;;;;;;;7.83;5.90;;;12.90;99.90;;;;;;4992141;28;20528;-78
2021/09/22 06:08:31;;;;;;;6.83;6.13;;;13.10;99.90;;;;;;5009505;28;21055;-80
2021/09/22 06:10:59;;;;;;;6.97;6.27;;;12.90;99.90;;;;;;5010318;28;20519;-78
2021/09/22 06:13:27;;;;;;;8.50;6.33;;;13.00;99.90;;;;;;5009265;28;20541;-78
2021/09/22 06:15:55;;;;;;;7.50;5.27;;;13.00;99.90;;;;;;5011735;28;20452;-78
2021/09/22 06:18:27;;;;;;;9.50;6.53;;;13.00;99.90;;;;;;5010846;28;20458;-78
2021/09/22 06:20:55;;;;;;;9.82;7.97;;;13.00;99.90;;;;;;5008285;28;20942;-76
2021/09/22 06:23:24;;;;;;;9.20;7.00;;;13.00;99.90;;;;;;5010759;28;20254;-79
2021/09/22 06:25:52;;;;;;;10.10;7.63;;;13.00;99.90;;;;;;5010818;28;20504;-79
2021/09/22 06:28:20;;;;;;;7.30;6.10;;;13.00;99.90;;;;;;5003695;28;20492;-78
2021/09/22 06:30:48;;;;;;;7.17;6.47;;;12.90;99.90;;;;;;5004007;28;20443;-79
2021/09/22 06:33:16;;;;;;;9.33;7.63;;;12.90;99.90;;;;;;5003833;28;20494;-79
2021/09/22 06:35:46;;;;;;;9.30;6.50;;;12.90;99.90;;;;;;5004911;28;20486;-77
2021/09/22 06:38:14;;;;;;;11.20;7.83;;;12.90;99.90;;;;;;5010516;28;20460;-79
2021/09/22 06:40:42;;;;;;;11.87;6.90;;;12.90;99.90;;;;;;5010628;28;20500;-78
2021/09/22 06:43:10;;;;;;;9.90;6.80;;;12.90;99.90;;;;;;5008242;28;20509;-77
2021/09/22 06:45:38;;;;;;;10.17;7.03;;;12.90;99.90;;;;;;5003847;28;20462;-79
2021/09/22 06:48:07;;;;;;;11.67;7.83;;;13.10;99.90;;;;;;5009502;28;20477;-79
2021/09/22 06:50:35;;;;;;;8.60;6.40;;;13.30;99.90;;;;;;5010099;28;21004;-76
2021/09/22 06:53:05;;;;;;;6.33;5.70;;;13.30;99.90;;;;;;5011487;28;20539;-77
2021/09/22 06:55:33;;;;;;;10.10;8.10;;;13.50;99.90;;;;;;5001577;28;21006;-77
2021/09/22 06:58:01;;;;;;;10.27;7.47;;;13.40;99.90;;;;;;5007967;28;20659;-79
2021/09/22 07:00:29;;;;;;;11.40;8.80;;;13.30;99.90;;;;;;5004738;28;20516;-77
2021/09/22 07:02:58;;;;;;;11.40;8.57;;;13.40;99.90;;;;;;5008389;28;20486;-78
2021/09/22 07:05:26;;;;;;;9.27;8.30;;;13.60;99.90;;;;;;5009544;28;20450;-79
2021/09/22 07:07:54;;;;;;;12.50;9.43;;;13.70;99.90;;;;;;5001925;28;20480;-80
2021/09/22 07:10:24;;;;;;;11.20;9.07;;;13.80;99.90;;;;;;5010808;28;20483;-79
2021/09/22 07:12:52;;;;;;;11.53;8.50;;;13.80;99.90;;;;;;5007075;28;20473;-78
2021/09/22 07:15:20;;;;;;;11.03;9.83;;;14.00;99.90;;;;;;4999827;28;20476;-80
2021/09/22 07:17:48;;;;;;;10.77;9.20;;;14.00;99.90;;;;;;5008268;28;20470;-81
2021/09/22 07:20:17;;;;;;;11.57;9.47;;;14.10;99.90;;;;;;5007649;28;20512;-80
2021/09/22 07:22:45;;;;;;;9.80;8.00;;;14.10;99.90;;;;;;5010885;28;20484;-79
2021/09/22 07:25:13;;;;;;;11.97;8.67;;;14.10;99.90;;;;;;5010694;28;20448;-78
2021/09/22 07:27:43;;;;;;;12.50;9.70;;;14.10;99.90;;;;;;4998039;28;20462;-79
2021/09/22 07:30:13;;;;;;;10.80;8.63;;;14.20;99.90;;;;;;5004257;28;20502;-81
2021/09/22 07:32:43;;;;;;;16.67;9.67;;;14.30;99.90;;;;;;5007374;28;20484;-78
2021/09/22 07:35:12;;;;;;;11.43;8.50;;;14.40;99.90;;;;;;5007838;28;20463;-80
2021/09/22 07:37:40;;;;;;;14.98;11.77;;;14.50;99.90;;;;;;5008286;28;20938;-77
2021/09/22 07:40:10;;;;;;;12.50;11.20;;;14.60;99.90;;;;;;5010632;28;20203;-78
2021/09/22 07:42:38;;;;;;;13.53;10.60;;;14.70;99.90;;;;;;5010032;28;20875;-79
2021/09/22 07:45:08;;;;;;;12.30;10.17;;;14.80;99.90;;;;;;5008691;28;20449;-80
2021/09/22 07:47:37;;;;;;;13.33;10.23;;;14.90;99.90;;;;;;5010404;28;20452;-78
2021/09/22 07:50:08;;;;;;;10.40;9.20;;;15.10;99.90;;;;;;5004261;28;20824;-78
2021/09/22 07:52:36;;;;;;;11.90;9.20;;;15.20;99.90;;;;;;5007718;28;20881;-78
2021/09/22 07:55:06;;;;;;;9.63;8.40;;;15.40;99.90;;;;;;5011311;28;20897;-77
2021/09/22 07:57:34;;;;;;;10.60;8.93;;;15.50;99.90;;;;;;5010268;28;20457;-79
2021/09/22 08:00:03;;;;;;;11.93;9.17;;;15.70;99.90;;;;;;5012769;28;20499;-80
2021/09/22 08:02:33;;;;;;;14.30;10.83;;;15.90;99.90;;;;;;5028541;28;20496;-82
2021/09/22 08:05:02;;;;;;;10.87;8.17;;;16.10;99.90;;;;;;5009348;28;20537;-80
2021/09/22 08:07:45;;;;;;;10.17;8.67;;;16.20;99.90;;;;;;5008108;28;20460;-78
2021/09/22 08:10:15;;;;;;;11.30;9.80;;;16.40;99.90;;;;;;5010599;28;20553;-79
2021/09/22 08:12:44;;;;;;;15.27;10.90;;;16.60;99.90;;;;;;5011827;28;20978;-79
2021/09/22 08:15:13;;;;;;;11.47;9.47;;;16.80;99.90;;;;;;5010286;28;20995;-81
2021/09/22 08:17:43;;;;;;;7.03;6.33;;;17.00;99.90;;;;;;5012138;28;20468;-79
2021/09/22 08:20:14;;;;;;;11.93;6.40;;;17.00;99.90;;;;;;5020465;28;20875;-80
2021/09/22 08:22:43;;;;;;;5.93;5.43;;;17.20;99.90;;;;;;5015216;28;20484;-82
2021/09/22 08:25:11;;;;;;;7.03;5.97;;;17.30;99.90;;;;;;5013882;28;20456;-78
2021/09/22 08:27:39;;;;;;;6.07;5.07;;;17.40;99.90;;;;;;5011445;28;20460;-80
2021/09/22 08:30:09;;;;;;;6.37;5.77;;;17.40;99.90;;;;;;5015089;28;20859;-79
2021/09/22 08:32:37;;;;;;;8.87;6.47;;;17.50;99.90;;;;;;5008393;28;20479;-80
2021/09/22 08:35:08;;;;;;;6.90;5.97;;;17.60;99.90;;;;;;5006702;28;20477;-78
2021/09/22 08:37:36;;;;;;;7.83;6.30;;;17.70;99.90;;;;;;5022977;28;20460;-81
2021/09/22 08:40:06;;;;;;;6.20;5.60;;;17.80;99.90;;;;;;5020091;28;20472;-79
2021/09/22 08:42:34;;;;;;;5.63;5.20;;;17.80;99.90;;;;;;5013868;28;20996;-79
2021/09/22 08:45:02;;;;;;;7.20;5.90;;;17.80;99.90;;;;;;5013504;28;21023;-80
2021/09/22 08:47:31;;;;;;;6.60;5.90;;;17.80;99.90;;;;;;5005970;28;20458;-80
2021/09/22 08:49:59;;;;;;;6.00;5.50;;;17.80;99.90;;;;;;5012438;28;21210;-81
2021/09/22 08:52:29;;;;;;;8.03;5.30;;;17.80;99.90;;;;;;5011260;28;20473;-79
2021/09/22 08:54:57;;;;;;;6.47;5.87;;;17.80;99.90;;;;;;5003633;28;20468;-80
2021/09/22 08:57:25;;;;;;;6.10;5.50;;;18.00;99.90;;;;;;5011362;28;20856;-80
2021/09/22 08:59:53;;;;;;;5.40;4.43;;;18.00;99.90;;;;;;5009452;28;20469;-81
2021/09/22 09:02:21;;;;;;;6.53;5.17;;;18.10;99.90;;;;;;5013971;28;20496;-80
2021/09/22 09:05:03;;;;;;;7.60;6.67;;;18.30;99.90;;;;;;5024584;28;21031;-79
2021/09/22 09:07:34;;;;;;;6.60;5.17;;;18.30;99.90;;;;;;5029764;28;20456;-81
2021/09/22 09:10:08;;;;;;;6.33;5.67;;;18.50;99.90;;;;;;5015377;28;20446;-82
2021/09/22 09:12:36;;;;;;;5.73;5.10;;;18.40;99.90;;;;;;5015260;28;20534;-79
2021/09/22 09:15:11;;;;;;;5.70;4.90;;;18.40;99.90;;;;;;5015120;28;20518;-80
2021/09/22 09:17:44;;;;;;;4.90;4.50;;;18.50;99.90;;;;;;5007997;28;20449;-80
2021/09/22 09:20:19;;;;;;;4.30;3.90;;;18.40;99.90;;;;;;5010684;28;20483;-79
2021/09/22 09:23:04;;;;;;;5.77;5.27;;;18.40;99.90;;;;;;5010254;28;20583;-79
2021/09/22 09:25:39;;;;;;;5.20;4.77;;;18.60;99.90;;;;;;5015477;28;20521;-80
2021/09/22 09:28:19;;;;;;;6.13;4.40;;;18.70;99.90;;;;;;5013945;28;20467;-80
2021/09/22 09:30:49;;;;;;;4.80;4.40;;;18.70;99.90;;;;;;5009823;28;20457;-80
2021/09/22 09:33:39;;;;;;;4.40;4.00;;;18.80;99.90;;;;;;5008966;28;20482;-80
2021/09/22 09:36:28;;;;;;;5.20;4.00;;;18.90;99.90;;;;;;5007323;28;20477;-81
2021/09/22 09:39:05;;;;;;;5.50;5.00;;;19.20;99.90;;;;;;5025480;28;20476;-80
2021/09/22 09:41:39;;;;;;;4.73;4.00;;;19.20;99.90;;;;;;5013461;28;20530;-79
2021/09/22 09:44:10;;;;;;;4.97;4.33;;;19.30;99.90;;;;;;5014716;28;20861;-80
2021/09/22 09:46:39;;;;;;;4.73;4.30;;;19.20;99.90;;;;;;5011949;28;20449;-80
2021/09/22 09:49:10;;;;;;;5.00;4.50;;;19.10;99.90;;;;;;5029189;28;20464;-79
2021/09/22 09:51:41;;;;;;;5.67;5.13;;;19.20;99.90;;;;;;5015965;28;20481;-80
2021/09/22 09:54:14;;;;;;;3.97;3.40;;;19.30;99.90;;;;;;5012961;28;20888;-80
2021/09/22 09:56:43;;;;;;;2.93;2.73;;;19.20;99.90;;;;;;5017955;28;20485;-80
2021/09/22 09:59:12;;;;;;;6.70;4.23;;;19.30;99.90;;;;;;5011162;28;20457;-81
2021/09/22 10:01:45;;;;;;;5.13;4.60;;;19.60;99.90;;;;;;5013114;28;21071;-79
2021/09/22 10:04:16;;;;;;;6.72;4.20;;;19.60;99.90;;;;;;5012467;28;20521;-80
2021/09/22 10:06:45;;;;;;;10.93;3.40;;;19.90;99.90;;;;;;5012980;28;20210;-80
2021/09/22 10:09:15;;;;;;;3.38;3.13;;;19.90;99.90;;;;;;5010647;28;20450;-79
2021/09/22 10:11:46;;;;;;;3.73;3.33;;;19.80;99.90;;;;;;5013182;28;20253;-80
2021/09/22 10:14:15;;;;;;;4.23;3.20;;;19.80;99.90;;;;;;5009220;28;20457;-81
2021/09/22 10:16:44;;;;;;;5.93;4.07;;;20.10;99.90;;;;;;5006383;28;20475;-80
2021/09/22 10:19:13;;;;;;;3.67;3.47;;;20.00;99.90;;;;;;5011070;28;20466;-80
2021/09/22 10:21:41;;;;;;;2.87;2.60;;;20.10;99.90;;;;;;5016242;28;20488;-79
2021/09/22 10:24:11;;;;;;;2.77;2.47;;;20.20;99.90;;;;;;5013662;28;20518;-78
2021/09/22 10:26:41;;;;;;;2.50;2.30;;;20.20;99.90;;;;;;5011282;28;20872;-81
2021/09/22 10:29:24;;;;;;;2.80;2.60;;;20.20;99.90;;;;;;5011691;28;20535;-78
2021/09/22 10:31:53;;;;;;;3.27;2.90;;;20.30;99.90;;;;;;5011919;28;20461;-77
2021/09/22 10:34:33;;;;;;;3.20;2.40;;;20.40;99.90;;;;;;5011532;28;20982;-79
2021/09/22 10:37:04;;;;;;;2.47;2.27;;;20.40;99.90;;;;;;5007533;28;20533;-78
2021/09/22 10:39:44;;;;;;;4.63;2.00;;;20.30;99.90;;;;;;5014861;28;20480;-78
2021/09/22 10:42:31;;;;;;;2.23;2.03;;;20.40;99.90;;;;;;5014952;28;20480;-79
2021/09/22 10:45:17;;;;;;;3.23;2.97;;;20.50;99.90;;;;;;5013648;28;20452;-78
2021/09/22 10:47:45;;;;;;;3.97;3.60;;;20.60;99.90;;;;;;5013998;28;20956;-78
2021/09/22 10:50:42;;;;;;;2.45;2.25;;;20.70;99.90;;;;;;5011947;28;20347;-77
2021/09/22 10:53:36;;;;;;;3.60;2.80;;;20.70;99.90;;;;;;5011307;28;20361;-79
2021/09/22 10:56:07;;;;;;;4.13;2.30;;;20.80;99.90;;;;;;5012258;28;20445;-77
2021/09/22 10:58:42;;;;;;;2.20;2.00;;;21.00;99.90;;;;;;5019311;28;20897;-78
2021/09/22 11:01:10;;;;;;;2.47;1.90;;;20.90;99.90;;;;;;5009032;28;20464;-78
2021/09/22 11:03:58;;;;;;;1.77;1.67;;;21.00;99.90;;;;;;5012886;28;20475;-79
2021/09/22 11:06:58;;;;;;;1.67;1.57;;;21.10;99.90;;;;;;5011395;28;20464;-78
2021/09/22 11:09:35;;;;;;;1.77;1.60;;;21.30;99.90;;;;;;5016054;28;20451;-79
2021/09/22 11:12:14;;;;;;;1.83;1.73;;;21.20;99.90;;;;;;5011010;28;20504;-78
2021/09/22 11:14:49;;;;;;;1.80;1.70;;;21.20;99.90;;;;;;5010934;28;20456;-77
2021/09/22 11:17:21;;;;;;;2.30;2.10;;;21.20;99.90;;;;;;5014352;28;20480;-80
2021/09/22 11:19:53;;;;;;;1.50;1.40;;;21.20;99.90;;;;;;5012387;28;20707;-78
2021/09/22 11:22:24;;;;;;;1.73;1.63;;;21.30;99.90;;;;;;5008029;28;20458;-78
2021/09/22 11:24:54;;;;;;;3.00;1.97;;;21.40;99.90;;;;;;5002011;28;20204;-79
2021/09/22 11:27:24;;;;;;;3.33;1.90;;;21.50;99.90;;;;;;5005797;28;20441;-79
2021/09/22 11:29:57;;;;;;;1.80;1.60;;;21.50;99.90;;;;;;5007914;28;20983;-80
2021/09/22 11:32:34;;;;;;;1.83;1.63;;;21.50;99.90;;;;;;5007699;28;20478;-77
2021/09/22 11:35:05;;;;;;;3.60;3.30;;;21.40;99.90;;;;;;5008968;28;20462;-79
2021/09/22 11:37:36;;;;;;;1.60;1.30;;;21.40;99.90;;;;;;5010537;28;20480;-78
2021/09/22 11:40:15;;;;;;;1.53;1.20;;;21.30;99.90;;;;;;5007139;28;20502;-78
2021/09/22 11:42:58;;;;;;;1.60;1.50;;;21.40;99.90;;;;;;5008236;28;20571;-78
2021/09/22 11:45:30;;;;;;;1.50;1.40;;;21.30;99.90;;;;;;5015938;28;20465;-78
2021/09/22 11:47:59;;;;;;;2.17;1.90;;;21.30;99.90;;;;;;5012765;28;21192;-78
2021/09/22 11:50:35;;;;;;;3.93;1.80;;;21.30;99.90;;;;;;5008189;28;21005;-79
2021/09/22 11:53:06;;;;;;;2.57;2.10;;;21.40;99.90;;;;;;5011917;28;20495;-79
2021/09/22 11:55:35;;;;;;;2.00;1.70;;;21.40;99.90;;;;;;5011430;28;20468;-78
2021/09/22 11:58:05;;;;;;;2.00;1.90;;;21.50;99.90;;;;;;4996570;28;21014;-78
2021/09/22 12:00:35;;;;;;;1.67;1.57;;;21.50;99.90;;;;;;5012215;28;20863;-79
2021/09/22 12:03:07;;;;;;;1.50;1.30;;;21.50;99.90;;;;;;5011368;28;20486;-78
2021/09/22 12:05:35;;;;;;;3.07;2.20;;;21.60;99.90;;;;;;5018713;28;20464;-79
2021/09/22 12:08:04;;;;;;;2.07;1.87;;;21.40;99.90;;;;;;5015170;28;20463;-79
2021/09/22 12:10:33;;;;;;;2.00;1.50;;;21.40;99.90;;;;;;5023059;28;20960;-78
2021/09/22 12:13:02;;;;;;;1.80;1.70;;;21.50;99.90;;;;;;5028971;28;20475;-77
2021/09/22 12:15:32;;;;;;;2.10;2.00;;;21.50;99.90;;;;;;5028882;28;20452;-76
2021/09/22 12:18:02;;;;;;;1.90;1.60;;;21.40;99.90;;;;;;5011584;28;20480;-79
2021/09/22 12:20:31;;;;;;;2.93;2.23;;;21.50;99.90;;;;;;5010774;28;20460;-79
2021/09/22 12:23:01;;;;;;;2.10;1.90;;;21.50;99.90;;;;;;5008846;28;20741;-77
2021/09/22 12:25:31;;;;;;;3.27;2.70;;;21.50;99.90;;;;;;5011371;28;20997;-76
2021/09/22 12:28:00;;;;;;;2.97;2.33;;;21.60;99.90;;;;;;5009255;28;20452;-77
2021/09/22 12:30:34;;;;;;;2.40;2.20;;;21.50;99.90;;;;;;5010485;28;20838;-80
2021/09/22 12:33:06;;;;;;;2.23;2.03;;;21.60;99.90;;;;;;5010973;28;21023;-79
2021/09/22 12:35:36;;;;;;;2.00;1.90;;;21.60;99.90;;;;;;5010330;28;20460;-77
2021/09/22 12:38:07;;;;;;;2.43;2.23;;;21.60;99.90;;;;;;5012558;28;20492;-78
2021/09/22 12:40:37;;;;;;;3.03;2.00;;;21.60;99.90;;;;;;5011916;28;20443;-76
2021/09/22 12:43:19;;;;;;;2.70;2.50;;;21.60;99.90;;;;;;5007996;28;21025;-75
2021/09/22 12:45:47;;;;;;;3.10;2.20;;;21.80;99.90;;;;;;5008650;28;20666;-75
2021/09/22 12:48:25;;;;;;;4.63;2.60;;;21.80;99.90;;;;;;5006879;28;20460;-75
2021/09/22 12:50:54;;;;;;;2.43;2.13;;;21.70;99.90;;;;;;5016031;28;20587;-74
2021/09/22 12:53:27;;;;;;;2.87;2.43;;;21.60;99.90;;;;;;5005786;28;20540;-75
2021/09/22 12:56:18;;;;;;;3.67;2.20;;;21.70;99.90;;;;;;5004177;28;20460;-75
2021/09/22 12:58:46;;;;;;;1.73;1.53;;;21.70;99.90;;;;;;5005774;28;20499;-76
2021/09/22 13:01:16;;;;;;;2.07;1.30;;;21.70;99.90;;;;;;5017121;28;20461;-75